28 september 2022

Tijd Code Weer Temp. Zicht Plafond Wind METAR/SPECI
13:00
V
22 °C 9 mi - 300° 300° 4 kt METAR CZVL 281900Z AUTO 30004KT 270V330 9SM CLR 22/09 A2990 RMK SLP132 DENSITY ALT 3700FT
12:00
V
21 °C 9 mi - 330° 330° 6 kt METAR CZVL 281800Z AUTO 33006KT 280V340 9SM CLR 21/08 A2991 RMK SLP132 DENSITY ALT 3500FT
11:00
V
18 °C 9 mi - 280° 280° 5 kt METAR CZVL 281700Z AUTO 28005KT 240V320 9SM CLR 18/08 A2991 RMK SLP131 DENSITY ALT 3200FT
10:00
V
13 °C 9 mi - Var Var 2 kt METAR CZVL 281600Z AUTO VRB02KT 9SM CLR 13/09 A2991 RMK SLP137 DENSITY ALT 2600FT
09:00
V
9 °C 9 mi - Var Var 2 kt METAR CZVL 281500Z AUTO VRB02KT 9SM CLR 09/08 A2989 RMK SLP134
08:00
V
6 °C 9 mi - Var 000° 0 kt METAR CZVL 281400Z AUTO 00000KT 9SM CLR 06/06 A2989 RMK SLP136
07:00
V
5 °C 7 mi - 310° 310° 4 kt METAR CZVL 281300Z AUTO 31004KT 7SM CLR 05/05 A2988 RMK SLP128
06:00
V
7 °C 9 mi - 180° 180° 2 kt METAR CZVL 281200Z AUTO 18002KT 9SM CLR 07/06 A2987 RMK SLP121
05:00
V
12 °C 9 mi - Var Var 2 kt METAR CZVL 281100Z AUTO VRB02KT 9SM CLR 12/08 A2987 RMK SLP116 DENSITY ALT 2600FT
04:00
V
10 °C 9 mi - 190° 190° 5 kt METAR CZVL 281000Z AUTO 19005KT 9SM CLR 10/08 A2987 RMK SLP119 DENSITY ALT 2300FT
03:00
V
10 °C 9 mi - 140° 140° 4 kt METAR CZVL 280900Z AUTO 14004KT 9SM CLR 10/07 A2987 RMK SLP120 DENSITY ALT 2300FT
02:00
V
9 °C 9 mi - 150° 150° 4 kt METAR CZVL 280800Z AUTO 15004KT 9SM CLR 09/07 A2988 RMK SLP123
01:00
V
9 °C 9 mi - 150° 150° 3 kt METAR CZVL 280700Z AUTO 15003KT 9SM CLR 09/06 A2988 RMK SLP126
00:00
V
11 °C 9 mi - 170° 170° 4 kt METAR CZVL 280600Z AUTO 17004KT 9SM CLR 11/07 A2988 RMK SLP126 DENSITY ALT 2400FT

27 september 2022

Tijd Code Weer Temp. Zicht Plafond Wind METAR/SPECI
23:00
V
17 °C 9 mi - 170° 170° 4 kt METAR CZVL 280500Z AUTO 17004KT 9SM CLR 17/08 A2988 RMK SLP123 DENSITY ALT 3100FT
22:00
V
14 °C 9 mi - 180° 180° 5 kt METAR CZVL 280400Z AUTO 18005KT 9SM CLR 14/08 A2987 RMK SLP123 DENSITY ALT 2800FT
21:00
V
14 °C 9 mi - 160° 160° 2 kt METAR CZVL 280300Z AUTO 16002KT 9SM CLR 14/09 A2987 RMK SLP123 DENSITY ALT 2800FT
20:00
V
14 °C 9 mi - 170° 170° 4 kt METAR CZVL 280200Z AUTO 17004KT 9SM CLR 14/09 A2987 RMK SLP125 DENSITY ALT 2800FT
19:00
V
20 °C 9 mi - 150° 150° 4 kt METAR CZVL 280100Z AUTO 15004KT 9SM CLR 20/10 A2986 RMK SLP116 DENSITY ALT 3400FT
18:00
V
24 °C 9 mi - 130° 130° 6 kt METAR CZVL 280000Z AUTO 13006KT 9SM CLR 24/09 A2986 RMK SLP116 DENSITY ALT 3900FT
17:00
V
25 °C 9 mi - Var 000° 0 kt METAR CZVL 272300Z AUTO 00000KT 9SM CLR 25/08 A2987 RMK SLP115 DENSITY ALT 4000FT
16:00
V
24 °C 9 mi - 130° 130° 3 kt METAR CZVL 272200Z AUTO 13003KT 090V200 9SM CLR 24/09 A2988 RMK SLP118 DENSITY ALT 3900FT
15:00
V
23 °C 9 mi - 170° 170° 4 kt METAR CZVL 272100Z AUTO 17004KT 130V280 9SM CLR 23/09 A2989 RMK SLP121 DENSITY ALT 3800FT
14:00
V
22 °C 9 mi - 150° 150° 3 kt METAR CZVL 272000Z AUTO 15003KT 110V220 9SM CLR 22/08 A2990 RMK SLP126 DENSITY ALT 3700FT
13:00
V
21 °C 9 mi - 210° 210° 3 kt METAR CZVL 271900Z AUTO 21003KT 100V220 9SM CLR 21/08 A2991 RMK SLP131 DENSITY ALT 3500FT
12:00
V
19 °C 9 mi - Var Var 2 kt METAR CZVL 271800Z AUTO VRB02KT 9SM CLR 19/08 A2992 RMK SLP134 DENSITY ALT 3200FT
11:00
V
16 °C 9 mi - 190° 190° 6 kt METAR CZVL 271700Z AUTO 19006KT 9SM CLR 16/09 A2993 RMK SLP144 DENSITY ALT 2900FT
10:00
V
14 °C 9 mi - 170° 170° 7 kt METAR CZVL 271600Z AUTO 17007KT 9SM CLR 14/09 A2993 RMK SLP144 DENSITY ALT 2700FT
09:00
V
12 °C 9 mi - 170° 170° 7 kt METAR CZVL 271500Z AUTO 17007KT 9SM CLR 12/09 A2994 RMK SLP148 DENSITY ALT 2500FT
08:00
V
9 °C 9 mi - Var 000° 0 kt METAR CZVL 271400Z AUTO 00000KT 9SM CLR 09/07 A2995 RMK SLP152
07:00
V
12 °C 9 mi - 140° 140° 3 kt METAR CZVL 271300Z AUTO 14003KT 9SM CLR 12/08 A2995 RMK SLP144 DENSITY ALT 2500FT
06:00
V
9 °C 9 mi - 160° 160° 4 kt METAR CZVL 271200Z AUTO 16004KT 9SM SCT180 09/07 A2996 RMK SLP150
05:00
V
13 °C 9 mi 18.000 ft 140° 140° 4 kt METAR CZVL 271100Z AUTO 14004KT 9SM FEW150 OVC180 13/09 A2996 RMK SLP147 DENSITY ALT 2600FT
04:00
V
14 °C 9 mi 15.000 ft 140° 140° 4 kt METAR CZVL 271000Z AUTO 14004KT 9SM FEW120 BKN150 BKN180 14/09 A2998 RMK SLP151 DENSITY ALT 2700FT
03:00
V
15 °C 9 mi 18.000 ft 150° 150° 5 kt METAR CZVL 270900Z AUTO 15005KT 9SM BKN180 15/09 A2999 RMK SLP157 DENSITY ALT 2800FT
02:00
V
15 °C 9 mi 17.000 ft 150° 150° 5 kt METAR CZVL 270800Z AUTO 15005KT 9SM BKN170 15/10 A3001 RMK SLP162 DENSITY ALT 2800FT
01:00
V
16 °C 9 mi 16.000 ft 150° 150° 6 kt METAR CZVL 270700Z AUTO 15006KT 9SM OVC160 16/10 A3002 RMK SLP167 DENSITY ALT 2800FT
00:00
V
15 °C 9 mi 15.000 ft 150° 150° 6 kt METAR CZVL 270600Z AUTO 15006KT 9SM BKN150 15/10 A3003 RMK SLP173 DENSITY ALT 2700FT

26 september 2022

Tijd Code Weer Temp. Zicht Plafond Wind METAR/SPECI
23:00
V
12 °C 9 mi - 150° 150° 4 kt METAR CZVL 270500Z AUTO 15004KT 9SM CLR 12/09 A3003 RMK SLP175 DENSITY ALT 2400FT
22:00
V
14 °C 9 mi - 140° 140° 3 kt METAR CZVL 270400Z AUTO 14003KT 9SM CLR 14/10 A3004 RMK SLP179 DENSITY ALT 2600FT
21:00
V
15 °C 9 mi 14.000 ft 140° 140° 3 kt METAR CZVL 270300Z AUTO 14003KT 9SM BKN140 15/10 A3004 RMK SLP179 DENSITY ALT 2600FT
20:00
V
16 °C 9 mi 14.000 ft 110° 110° 2 kt METAR CZVL 270200Z AUTO 11002KT 9SM BKN140 16/10 A3004 RMK SLP178 DENSITY ALT 2900FT
19:00
V
22 °C 9 mi - 120° 120° 4 kt METAR CZVL 270100Z AUTO 12004KT 9SM CLR 22/10 A3005 RMK SLP177 DENSITY ALT 3500FT
18:00
V
23 °C 9 mi - 120° 120° 4 kt METAR CZVL 270000Z AUTO 12004KT 9SM CLR 23/10 A3006 RMK SLP182 DENSITY ALT 3600FT
17:00
V
24 °C 9 mi - 150° 150° 5 kt METAR CZVL 262300Z AUTO 15005KT 070V170 9SM CLR 24/10 A3008 RMK SLP185 DENSITY ALT 3700FT
16:00
V
24 °C 9 mi - 140° 140° 4 kt METAR CZVL 262200Z AUTO 14004KT 100V210 9SM CLR 24/09 A3008 RMK SLP186 DENSITY ALT 3700FT
15:00
V
23 °C 9 mi - 210° 210° 4 kt METAR CZVL 262100Z AUTO 21004KT 140V240 9SM CLR 23/09 A3010 RMK SLP193 DENSITY ALT 3500FT
14:00
V
23 °C 9 mi - 190° 190° 6 kt METAR CZVL 262000Z AUTO 19006KT 140V210 9SM CLR 23/10 A3012 RMK SLP198 DENSITY ALT 3500FT
13:00
V
22 °C 9 mi - 200° 200° 4 kt METAR CZVL 261900Z AUTO 20004KT 130V260 9SM CLR 22/10 A3014 RMK SLP209 DENSITY ALT 3300FT
12:00
V
21 °C 9 mi - Var 000° 0 kt METAR CZVL 261800Z AUTO 00000KT 9SM CLR 21/10 A3015 RMK SLP213 DENSITY ALT 3200FT
11:00
V
20 °C 9 mi - Var Var 2 kt METAR CZVL 261700Z AUTO VRB02KT 9SM CLR 20/09 A3016 RMK SLP216 DENSITY ALT 3100FT
10:00
V
18 °C 9 mi 6.000 ft 220° 220° 3 kt METAR CZVL 261600Z AUTO 22003KT 200V280 9SM BKN060 18/10 A3016 RMK SLP218 DENSITY ALT 2900FT
09:00
V
17 °C 9 mi 6.000 ft 270° 270° 4 kt METAR CZVL 261500Z AUTO 27004KT 9SM OVC060 17/09 A3016 RMK SLP219 DENSITY ALT 2800FT
Oudere gegevens

Met cookies volgen wij en derde partijen jouw internetgedrag binnen onze site. Als je verdergaat gaan we ervan uit dat je dit goedvindt. Meer info